createdAt,value
2019-04-05T00:00:03.088Z,7.10
2019-04-05T00:02:31.674Z,7.20
2019-04-05T00:05:00.224Z,7.20
2019-04-05T00:07:28.749Z,7.20
2019-04-05T00:09:57.395Z,7.20
2019-04-05T00:12:26.062Z,7.20
2019-04-05T00:14:54.543Z,7.20
2019-04-05T00:17:23.160Z,7.20
2019-04-05T00:19:51.610Z,7.10
2019-04-05T00:22:20.226Z,6.90
2019-04-05T00:24:48.711Z,6.90
2019-04-05T00:27:17.288Z,6.80
2019-04-05T00:29:45.738Z,6.80
2019-04-05T00:32:14.219Z,6.90
2019-04-05T00:34:42.677Z,6.90
2019-04-05T00:37:11.236Z,6.80
2019-04-05T00:39:39.766Z,6.80
2019-04-05T00:42:08.310Z,6.70
2019-04-05T00:44:36.942Z,6.70
2019-04-05T00:47:05.580Z,6.60
2019-04-05T00:49:34.070Z,6.60
2019-04-05T00:52:02.706Z,6.60
2019-04-05T00:54:31.333Z,6.70
2019-04-05T00:56:59.809Z,6.70
2019-04-05T00:59:28.267Z,6.70
2019-04-05T01:01:56.849Z,6.60
2019-04-05T01:04:25.361Z,6.60
2019-04-05T01:06:53.832Z,6.60
2019-04-05T01:09:22.288Z,6.60
2019-04-05T01:11:50.811Z,6.60
2019-04-05T01:14:19.280Z,6.60
2019-04-05T01:16:47.748Z,6.60
2019-04-05T01:19:16.226Z,6.60
2019-04-05T01:21:48.133Z,6.50
2019-04-05T01:24:17.828Z,6.50
2019-04-05T01:26:47.120Z,6.50
2019-04-05T01:29:16.195Z,6.50
2019-04-05T01:31:44.676Z,6.50
2019-04-05T01:34:13.162Z,6.60
2019-04-05T01:36:41.626Z,6.60
2019-04-05T01:39:10.107Z,6.60
2019-04-05T01:41:39.082Z,6.60
2019-04-05T01:44:07.785Z,6.50
2019-04-05T01:46:36.413Z,6.50
2019-04-05T01:49:05.101Z,6.50
2019-04-05T01:51:34.136Z,6.40
2019-04-05T01:54:02.672Z,6.40
2019-04-05T01:56:32.495Z,6.30
2019-04-05T01:59:01.062Z,6.30
2019-04-05T02:01:29.576Z,6.40
2019-04-05T02:03:58.078Z,6.50
2019-04-05T02:06:26.988Z,6.50
2019-04-05T02:08:55.560Z,6.40
2019-04-05T02:11:24.290Z,6.30
2019-04-05T02:13:52.761Z,6.20
2019-04-05T02:16:21.686Z,6.20
2019-04-05T02:18:50.163Z,6.10
2019-04-05T02:21:18.604Z,6.00
2019-04-05T02:23:47.241Z,6.00
2019-04-05T02:26:15.730Z,6.00
2019-04-05T02:28:44.186Z,5.90
2019-04-05T02:31:12.643Z,5.90
2019-04-05T02:33:41.185Z,6.00
2019-04-05T02:36:09.667Z,6.00
2019-04-05T02:38:38.146Z,6.10
2019-04-05T02:41:06.667Z,6.10
2019-04-05T02:43:36.707Z,6.10
2019-04-05T02:46:16.274Z,6.00
2019-04-05T02:48:38.339Z,6.10
2019-04-05T02:51:07.634Z,6.00
2019-04-05T02:53:37.540Z,6.10
2019-04-05T02:56:07.177Z,6.00
2019-04-05T02:58:37.327Z,6.10
2019-04-05T03:01:05.819Z,6.10
2019-04-05T03:03:34.742Z,6.00
2019-04-05T03:06:04.383Z,6.00
2019-04-05T03:08:33.283Z,6.10
2019-04-05T03:11:13.905Z,6.10
2019-04-05T03:13:48.456Z,6.10
2019-04-05T03:16:38.612Z,6.00
2019-04-05T03:18:58.877Z,6.00
2019-04-05T03:21:29.680Z,5.90
2019-04-05T03:24:01.142Z,5.90
2019-04-05T03:26:32.697Z,5.90
2019-04-05T03:29:04.293Z,5.80
2019-04-05T03:31:33.556Z,5.80
2019-04-05T03:34:02.467Z,5.70
2019-04-05T03:36:31.731Z,5.70
2019-04-05T03:39:00.488Z,5.70
2019-04-05T03:41:29.382Z,5.70
2019-04-05T03:43:57.947Z,5.70
2019-04-05T03:46:26.822Z,5.70
2019-04-05T03:48:55.334Z,5.70
2019-04-05T03:51:24.628Z,5.70
2019-04-05T03:53:53.245Z,5.70
2019-04-05T03:56:21.761Z,5.70
2019-04-05T03:58:50.319Z,5.70
2019-04-05T04:01:18.897Z,5.80
2019-04-05T04:03:47.673Z,6.10
2019-04-05T04:06:16.206Z,6.20
2019-04-05T04:08:44.679Z,6.30
2019-04-05T04:11:13.629Z,6.30
2019-04-05T04:13:42.259Z,6.30
2019-04-05T04:16:10.778Z,6.40
2019-04-05T04:18:39.588Z,6.70
2019-04-05T04:21:11.113Z,6.70
2019-04-05T04:23:39.696Z,6.60
2019-04-05T04:26:08.422Z,6.50
2019-04-05T04:28:37.204Z,6.30
2019-04-05T04:31:06.162Z,6.30
2019-04-05T04:33:34.681Z,6.30
2019-04-05T04:36:03.806Z,6.30
2019-04-05T04:38:32.583Z,6.40
2019-04-05T04:41:01.709Z,6.40
2019-04-05T04:43:30.159Z,6.50
2019-04-05T04:45:58.752Z,6.50
2019-04-05T04:48:28.654Z,6.50
2019-04-05T04:50:57.575Z,6.60
2019-04-05T04:53:26.576Z,6.60
2019-04-05T04:55:55.083Z,6.60
2019-04-05T04:58:23.768Z,6.70
2019-04-05T05:00:52.351Z,6.70
2019-04-05T05:03:21.343Z,6.70
2019-04-05T05:05:49.848Z,6.80
2019-04-05T05:08:18.562Z,6.90
2019-04-05T05:10:47.477Z,6.90
2019-04-05T05:13:16.366Z,6.90
2019-04-05T05:15:45.142Z,7.00
2019-04-05T05:18:22.807Z,7.10
2019-04-05T05:20:47.245Z,7.20
2019-04-05T05:23:16.218Z,7.50
2019-04-05T05:25:46.903Z,7.60
2019-04-05T05:28:15.182Z,7.70
2019-04-05T05:30:43.715Z,7.70
2019-04-05T05:33:12.456Z,7.70
2019-04-05T05:35:41.032Z,7.70
2019-04-05T05:38:09.935Z,7.60
2019-04-05T05:40:38.517Z,7.60
2019-04-05T05:43:10.096Z,7.60
2019-04-05T05:45:38.719Z,7.60
2019-04-05T05:48:07.310Z,7.60
2019-04-05T05:50:36.362Z,7.60
2019-04-05T05:53:07.095Z,7.50
2019-04-05T05:55:35.591Z,7.50
2019-04-05T05:58:04.297Z,7.60
2019-04-05T06:00:32.830Z,7.70
2019-04-05T06:03:06.120Z,7.90
2019-04-05T06:05:33.794Z,7.90
2019-04-05T06:08:08.973Z,7.90
2019-04-05T06:10:40.569Z,7.90
2019-04-05T06:13:09.512Z,7.90
2019-04-05T06:15:38.067Z,7.80
2019-04-05T06:18:06.504Z,7.80
2019-04-05T06:20:35.245Z,7.80
2019-04-05T06:23:11.685Z,7.90
2019-04-05T06:25:40.199Z,8.00
2019-04-05T06:28:08.749Z,8.00
2019-04-05T06:30:37.293Z,8.10
2019-04-05T06:33:05.829Z,8.10
2019-04-05T06:35:34.369Z,8.20
2019-04-05T06:38:02.877Z,8.20
2019-04-05T06:40:40.586Z,8.20
2019-04-05T06:43:01.515Z,8.30
2019-04-05T06:45:30.039Z,8.40
2019-04-05T06:47:58.533Z,8.60
2019-04-05T06:50:27.062Z,8.70
2019-04-05T06:52:55.535Z,8.80
2019-04-05T06:55:24.051Z,9.10
2019-04-05T06:57:52.501Z,9.10
2019-04-05T07:00:24.188Z,9.00
2019-04-05T07:02:53.664Z,9.30
2019-04-05T07:05:22.110Z,9.30
2019-04-05T07:07:50.555Z,9.30
2019-04-05T07:10:19.021Z,9.40
2019-04-05T07:12:47.517Z,9.50
2019-04-05T07:15:16.002Z,9.70
2019-04-05T07:17:44.475Z,9.70
2019-04-05T07:20:13.004Z,9.60
2019-04-05T07:22:41.488Z,9.80
2019-04-05T07:25:10.069Z,10.00
2019-04-05T07:27:38.526Z,10.40
2019-04-05T07:30:08.218Z,10.30
2019-04-05T07:32:36.708Z,10.00
2019-04-05T07:35:06.274Z,10.00
2019-04-05T07:37:34.724Z,9.80
2019-04-05T07:40:03.461Z,9.70
2019-04-05T07:42:31.911Z,9.80
2019-04-05T07:45:00.461Z,9.70
2019-04-05T07:47:28.929Z,9.80
2019-04-05T07:49:57.379Z,9.80
2019-04-05T07:52:25.831Z,9.90
2019-04-05T07:54:54.278Z,9.90
2019-04-05T07:57:22.808Z,10.20
2019-04-05T07:59:51.260Z,10.40
2019-04-05T08:02:19.719Z,10.70
2019-04-05T08:04:48.164Z,11.10
2019-04-05T08:07:18.306Z,11.50
2019-04-05T08:09:47.003Z,11.70
2019-04-05T08:12:15.665Z,11.90
2019-04-05T08:14:44.997Z,12.20
2019-04-05T08:17:13.549Z,12.00
2019-04-05T08:19:42.000Z,12.20
2019-04-05T08:22:10.547Z,11.80
2019-04-05T08:24:39.052Z,11.70
2019-04-05T08:27:07.594Z,11.60
2019-04-05T08:29:36.169Z,11.60
2019-04-05T08:32:14.329Z,11.70
2019-04-05T08:34:35.019Z,12.00
2019-04-05T08:37:03.561Z,12.00
2019-04-05T08:39:31.997Z,12.30
2019-04-05T08:42:00.802Z,12.80
2019-04-05T08:44:29.306Z,13.40
2019-04-05T08:46:57.942Z,13.70
2019-04-05T08:49:26.500Z,13.70
2019-04-05T08:51:55.067Z,13.80
2019-04-05T08:54:32.382Z,14.10
2019-04-05T08:56:53.764Z,14.60
2019-04-05T08:59:22.240Z,15.00
2019-04-05T09:01:50.791Z,15.90
2019-04-05T09:04:19.257Z,17.00
2019-04-05T09:06:47.714Z,17.30
2019-04-05T09:09:16.251Z,17.40
2019-04-05T09:11:44.706Z,18.40
2019-04-05T09:14:13.211Z,18.90
2019-04-05T09:16:41.747Z,19.50
2019-04-05T09:19:22.757Z,20.80
2019-04-05T09:21:40.789Z,21.10
2019-04-05T09:24:09.474Z,21.80
2019-04-05T09:26:37.970Z,22.20
2019-04-05T09:29:09.088Z,22.90
2019-04-05T09:31:36.754Z,22.60
2019-04-05T09:34:05.276Z,20.60
2019-04-05T09:36:33.721Z,19.90
2019-04-05T09:39:02.280Z,19.10
2019-04-05T09:41:30.819Z,18.60
2019-04-05T09:43:59.388Z,18.20
2019-04-05T09:46:27.852Z,18.10
2019-04-05T09:48:56.329Z,17.80
2019-04-05T09:51:24.871Z,17.50
2019-04-05T09:53:53.409Z,17.10
2019-04-05T09:56:22.118Z,17.40
2019-04-05T09:58:50.602Z,18.60
2019-04-05T10:01:19.079Z,20.90
2019-04-05T10:03:47.551Z,22.00
2019-04-05T10:06:16.008Z,23.40
2019-04-05T10:08:44.495Z,23.90
2019-04-05T10:11:13.033Z,23.40
2019-04-05T10:13:41.567Z,23.10
2019-04-05T10:16:10.020Z,22.00
2019-04-05T10:18:38.493Z,20.60
2019-04-05T10:21:06.961Z,20.00
2019-04-05T10:23:35.556Z,19.20
2019-04-05T10:26:04.795Z,18.50
2019-04-05T10:28:33.469Z,18.30
2019-04-05T10:31:02.004Z,18.20
2019-04-05T10:33:30.503Z,18.60
2019-04-05T10:36:01.973Z,18.10
2019-04-05T10:38:30.574Z,18.40
2019-04-05T10:40:59.122Z,18.10
2019-04-05T10:43:27.598Z,19.10
2019-04-05T10:45:56.147Z,19.40
2019-04-05T10:48:24.679Z,19.80
2019-04-05T10:50:53.150Z,19.60
2019-04-05T10:53:21.629Z,19.30
2019-04-05T10:55:50.082Z,18.90
2019-04-05T10:58:18.583Z,18.70
2019-04-05T11:00:47.129Z,18.30
2019-04-05T11:03:15.596Z,18.40
2019-04-05T11:05:44.042Z,18.00
2019-04-05T11:08:12.513Z,18.40
2019-04-05T11:10:41.163Z,18.40
2019-04-05T11:13:09.659Z,18.30
2019-04-05T11:15:38.152Z,17.80
2019-04-05T11:18:06.799Z,18.00
2019-04-05T11:20:35.413Z,18.00
2019-04-05T11:23:04.231Z,18.90
2019-04-05T11:25:32.765Z,20.60
2019-04-05T11:28:01.259Z,21.90
2019-04-05T11:30:41.355Z,22.30
2019-04-05T11:33:09.837Z,22.20
2019-04-05T11:35:38.445Z,22.20
2019-04-05T11:38:07.085Z,21.70
2019-04-05T11:40:36.161Z,21.60
2019-04-05T11:43:04.854Z,20.70
2019-04-05T11:45:34.191Z,20.50
2019-04-05T11:48:05.577Z,20.50
2019-04-05T11:50:35.041Z,20.40
2019-04-05T11:53:03.652Z,19.60
2019-04-05T11:55:32.132Z,19.20
2019-04-05T11:58:00.637Z,18.60
2019-04-05T12:00:39.624Z,18.00
2019-04-05T12:03:12.023Z,17.60
2019-04-05T12:05:40.528Z,17.70
2019-04-05T12:08:08.993Z,17.70
2019-04-05T12:10:38.089Z,17.80
2019-04-05T12:13:06.687Z,17.80
2019-04-05T12:15:35.774Z,17.80
2019-04-05T12:18:05.441Z,17.90
2019-04-05T12:20:47.353Z,18.10
2019-04-05T12:23:04.205Z,18.10
2019-04-05T12:25:33.754Z,18.10
2019-04-05T12:28:06.994Z,18.00
2019-04-05T12:30:33.216Z,17.90
2019-04-05T12:33:12.969Z,18.10
2019-04-05T12:35:31.868Z,18.20
2019-04-05T12:38:00.488Z,18.30
2019-04-05T12:40:29.128Z,18.30
2019-04-05T12:42:57.681Z,18.30
2019-04-05T12:45:26.247Z,18.30
2019-04-05T12:47:54.849Z,18.50
2019-04-05T12:50:23.376Z,18.40
2019-04-05T12:52:51.900Z,18.20
2019-04-05T12:55:23.595Z,18.40
2019-04-05T12:57:50.705Z,18.30
2019-04-05T13:00:20.427Z,18.30
2019-04-05T13:02:50.377Z,18.30
2019-04-05T13:05:21.301Z,18.40
2019-04-05T13:07:50.735Z,18.50
2019-04-05T13:10:19.624Z,18.40
2019-04-05T13:12:48.146Z,18.10
2019-04-05T13:15:18.324Z,17.90
2019-04-05T13:17:46.858Z,17.90
2019-04-05T13:20:15.559Z,17.90
2019-04-05T13:22:44.006Z,17.90
2019-04-05T13:25:12.627Z,17.90
2019-04-05T13:27:42.005Z,17.90
2019-04-05T13:30:11.721Z,17.70
2019-04-05T13:32:40.236Z,17.60
2019-04-05T13:35:09.163Z,17.70
2019-04-05T13:37:37.622Z,17.80
2019-04-05T13:40:08.700Z,18.00
2019-04-05T13:42:37.251Z,18.50
2019-04-05T13:45:09.051Z,18.60
2019-04-05T13:47:38.945Z,18.70
2019-04-05T13:50:10.879Z,18.70
2019-04-05T13:52:41.462Z,18.60
2019-04-05T13:55:11.244Z,18.70
2019-04-05T13:57:40.881Z,18.50
2019-04-05T14:00:10.602Z,18.40
2019-04-05T14:02:39.151Z,18.10
2019-04-05T14:05:08.228Z,18.30
2019-04-05T14:07:36.721Z,18.20
2019-04-05T14:10:10.688Z,18.20
2019-04-05T14:12:37.669Z,18.20
2019-04-05T14:15:10.864Z,18.10
2019-04-05T14:17:38.014Z,18.00
2019-04-05T14:20:09.091Z,18.10
2019-04-05T14:22:37.151Z,18.10
2019-04-05T14:25:08.903Z,18.30
2019-04-05T14:27:37.351Z,18.10
2019-04-05T14:30:07.148Z,18.10
2019-04-05T14:32:35.646Z,18.00
2019-04-05T14:35:07.729Z,17.80
2019-04-05T14:37:36.302Z,17.60
2019-04-05T14:40:08.635Z,17.50
2019-04-05T14:42:37.354Z,17.50
2019-04-05T14:45:07.222Z,17.40
2019-04-05T14:47:35.678Z,17.40
2019-04-05T14:50:07.133Z,17.20
2019-04-05T14:52:35.771Z,17.30
2019-04-05T14:55:04.832Z,17.40
2019-04-05T14:57:35.502Z,17.70
2019-04-05T15:00:04.756Z,18.00
2019-04-05T15:02:33.252Z,18.10
2019-04-05T15:05:01.980Z,17.90
2019-04-05T15:07:30.447Z,17.90
2019-04-05T15:09:58.951Z,17.80
2019-04-05T15:12:29.223Z,17.80
2019-04-05T15:14:57.590Z,17.70
2019-04-05T15:17:26.030Z,17.90
2019-04-05T15:19:54.668Z,18.00
2019-04-05T15:22:23.120Z,18.00
2019-04-05T15:24:51.598Z,18.00
2019-04-05T15:27:21.724Z,18.00
2019-04-05T15:29:50.259Z,17.80
2019-04-05T15:32:19.395Z,17.80
2019-04-05T15:34:47.986Z,17.60
2019-04-05T15:37:16.491Z,17.40
2019-04-05T15:39:44.958Z,17.10
2019-04-05T15:42:13.436Z,16.90
2019-04-05T15:44:42.008Z,16.80
2019-04-05T15:47:13.468Z,16.50
2019-04-05T15:49:40.644Z,16.40
2019-04-05T15:52:18.543Z,16.30
2019-04-05T15:54:39.322Z,16.00
2019-04-05T15:57:07.876Z,15.90
2019-04-05T15:59:36.362Z,15.80
2019-04-05T16:02:07.034Z,15.60
2019-04-05T16:04:35.488Z,15.60
2019-04-05T16:07:04.107Z,15.50
2019-04-05T16:09:32.595Z,15.40
2019-04-05T16:12:01.098Z,15.20
2019-04-05T16:14:32.305Z,15.10
2019-04-05T16:17:00.790Z,14.90
2019-04-05T16:19:29.305Z,14.80
2019-04-05T16:21:57.788Z,14.60
2019-04-05T16:24:26.308Z,14.50
2019-04-05T16:26:55.629Z,14.40
2019-04-05T16:29:24.178Z,14.30
2019-04-05T16:31:52.700Z,14.30
2019-04-05T16:34:21.271Z,14.20
2019-04-05T16:36:49.749Z,14.10
2019-04-05T16:39:19.466Z,14.10
2019-04-05T16:41:47.972Z,14.00
2019-04-05T16:44:16.421Z,13.90
2019-04-05T16:46:44.874Z,13.80
2019-04-05T16:49:13.423Z,13.80
2019-04-05T16:51:41.886Z,13.70
2019-04-05T16:54:10.400Z,13.70
2019-04-05T16:56:38.943Z,13.70
2019-04-05T16:59:07.390Z,13.70
2019-04-05T17:01:35.845Z,13.60
2019-04-05T17:04:04.310Z,13.60
2019-04-05T17:06:32.786Z,13.50
2019-04-05T17:09:01.297Z,13.40
2019-04-05T17:11:29.749Z,13.30
2019-04-05T17:13:59.509Z,13.20
2019-04-05T17:16:28.283Z,13.10
2019-04-05T17:18:56.819Z,13.10
2019-04-05T17:21:25.297Z,13.00
2019-04-05T17:23:53.794Z,13.00
2019-04-05T17:26:22.309Z,12.90
2019-04-05T17:28:50.811Z,12.90
2019-04-05T17:31:19.320Z,12.90
2019-04-05T17:33:47.810Z,12.80
2019-04-05T17:36:16.256Z,12.80
2019-04-05T17:38:44.740Z,12.60
2019-04-05T17:41:13.194Z,12.50
2019-04-05T17:43:41.663Z,12.50
2019-04-05T17:46:10.169Z,12.40
2019-04-05T17:48:38.624Z,12.40
2019-04-05T17:51:07.171Z,12.30
2019-04-05T17:53:35.675Z,12.10
2019-04-05T17:56:04.211Z,12.00
2019-04-05T17:58:33.347Z,11.90
2019-04-05T18:01:01.894Z,11.90
2019-04-05T18:03:30.399Z,11.80
2019-04-05T18:05:58.878Z,11.70
2019-04-05T18:08:27.336Z,11.60
2019-04-05T18:10:57.354Z,11.60
2019-04-05T18:13:25.878Z,11.50
2019-04-05T18:15:54.396Z,11.30
2019-04-05T18:18:22.891Z,11.20
2019-04-05T18:20:51.366Z,11.20
2019-04-05T18:23:25.224Z,11.20
2019-04-05T18:25:50.339Z,11.10
2019-04-05T18:28:18.895Z,11.10
2019-04-05T18:30:48.030Z,11.00
2019-04-05T18:33:18.276Z,11.00
2019-04-05T18:35:46.816Z,10.90
2019-04-05T18:38:15.356Z,10.80
2019-04-05T18:40:43.993Z,10.80
2019-04-05T18:43:12.585Z,10.70
2019-04-05T18:45:41.125Z,10.60
2019-04-05T18:48:09.692Z,10.50
2019-04-05T18:50:38.376Z,10.50
2019-04-05T18:53:06.978Z,10.50
2019-04-05T18:55:36.198Z,10.50
2019-04-05T18:58:05.113Z,10.50
2019-04-05T19:00:33.906Z,10.50
2019-04-05T19:03:02.423Z,10.50
2019-04-05T19:05:30.964Z,10.50
2019-04-05T19:07:59.562Z,10.60
2019-04-05T19:10:36.908Z,10.60
2019-04-05T19:12:59.488Z,10.70
2019-04-05T19:15:28.247Z,10.90
2019-04-05T19:17:56.788Z,10.90
2019-04-05T19:20:25.398Z,11.00
2019-04-05T19:22:54.054Z,11.00
2019-04-05T19:25:22.512Z,11.00
2019-04-05T19:27:51.041Z,11.10
2019-04-05T19:50:22.245Z,11.40
2019-04-05T19:52:50.732Z,11.40
2019-04-05T19:55:19.281Z,11.40
2019-04-05T19:57:47.732Z,11.40
2019-04-05T20:00:16.328Z,11.50
2019-04-05T20:02:44.859Z,11.50
2019-04-05T20:05:13.421Z,11.50
2019-04-05T20:07:42.232Z,11.50
2019-04-05T20:10:10.885Z,11.50
2019-04-05T20:12:39.443Z,11.50
2019-04-05T20:15:08.447Z,11.50
2019-04-05T20:17:37.187Z,11.50
2019-04-05T20:20:07.302Z,11.50
2019-04-05T20:22:35.751Z,11.60
2019-04-05T20:25:08.859Z,11.60
2019-04-05T20:27:37.375Z,11.60
2019-04-05T20:30:07.621Z,11.70
2019-04-05T20:32:36.158Z,11.70
2019-04-05T20:35:05.379Z,11.80
2019-04-05T20:37:33.879Z,11.80
2019-04-05T20:40:02.340Z,11.80
2019-04-05T20:42:30.790Z,11.80
2019-04-05T20:44:59.253Z,11.80
2019-04-05T20:47:27.717Z,11.80
2019-04-05T20:49:56.188Z,11.80
2019-04-05T20:52:24.880Z,11.90
2019-04-05T20:54:53.398Z,11.90
2019-04-05T20:57:21.911Z,11.80
2019-04-05T20:59:50.396Z,11.80
2019-04-05T21:02:18.998Z,11.80
2019-04-05T21:04:47.528Z,11.70
2019-04-05T21:07:16.014Z,11.70
2019-04-05T21:09:44.617Z,11.70
2019-04-05T21:12:13.234Z,11.80
2019-04-05T21:14:41.714Z,11.70
2019-04-05T21:17:10.187Z,11.70
2019-04-05T21:19:38.658Z,11.60
2019-04-05T21:22:07.346Z,11.60
2019-04-05T21:24:36.539Z,11.50
2019-04-05T21:27:05.238Z,11.50
2019-04-05T21:29:33.978Z,11.40
2019-04-05T21:32:02.578Z,11.30
2019-04-05T21:34:31.198Z,11.50
2019-04-05T21:36:59.679Z,11.40
2019-04-05T21:39:28.206Z,11.40
2019-04-05T21:41:56.663Z,11.40
2019-04-05T21:44:26.726Z,11.40
2019-04-05T21:46:55.284Z,11.30
2019-04-05T21:49:23.822Z,11.20
2019-04-05T21:51:52.337Z,11.20
2019-04-05T21:54:20.825Z,11.10
2019-04-05T21:56:49.318Z,11.10
2019-04-05T21:59:17.855Z,10.90
2019-04-05T22:01:47.423Z,10.70
2019-04-05T22:04:16.109Z,10.50
2019-04-05T22:06:44.642Z,10.40
2019-04-05T22:09:13.108Z,10.20
2019-04-05T22:11:41.572Z,10.00
2019-04-05T22:14:10.051Z,9.90
2019-04-05T22:16:38.513Z,9.80
2019-04-05T22:19:07.039Z,9.70
2019-04-05T22:21:35.617Z,9.60
2019-04-05T22:24:04.201Z,9.50
2019-04-05T22:26:32.669Z,9.40
2019-04-05T22:29:01.113Z,9.30
2019-04-05T22:31:29.580Z,9.20
2019-04-05T22:33:58.028Z,9.10
2019-04-05T22:36:26.556Z,9.10
2019-04-05T22:38:55.557Z,9.10
2019-04-05T22:41:24.046Z,9.10
2019-04-05T22:43:52.719Z,9.00
2019-04-05T22:46:21.255Z,9.00
2019-04-05T22:48:49.687Z,8.90
2019-04-05T22:51:18.138Z,8.90
2019-04-05T22:53:46.619Z,8.80
2019-04-05T22:56:15.235Z,8.90
2019-04-05T22:58:43.727Z,8.90
2019-04-05T23:01:12.196Z,8.90
2019-04-05T23:03:40.677Z,8.90
2019-04-05T23:06:09.173Z,8.80
2019-04-05T23:08:37.756Z,8.80
2019-04-05T23:11:06.226Z,8.70
2019-04-05T23:13:34.701Z,8.70
2019-04-05T23:16:03.219Z,8.60
2019-04-05T23:18:31.751Z,8.60
2019-04-05T23:21:00.322Z,8.60
2019-04-05T23:23:28.806Z,8.60
2019-04-05T23:25:57.270Z,8.60
2019-04-05T23:28:25.803Z,8.50
2019-04-05T23:30:54.266Z,8.50
2019-04-05T23:33:22.818Z,8.40
2019-04-05T23:35:51.278Z,8.40
2019-04-05T23:38:19.828Z,8.40
2019-04-05T23:40:48.427Z,8.50
2019-04-05T23:43:16.881Z,8.50
2019-04-05T23:45:45.340Z,8.40
2019-04-05T23:48:13.803Z,8.30
2019-04-05T23:50:42.263Z,8.20
2019-04-05T23:53:10.781Z,8.10
2019-04-05T23:55:39.292Z,8.10
2019-04-05T23:58:07.774Z,8.00
